Time;durP1;ratioP1;P1;durP2;ratioP2;P2;SDS_P1;SDS_P2;PMS_P1;PMS_P2;Temp;Humidity;BMP_temperature;BMP_pressure;BME280_temperature;BME280_humidity;BME280_pressure;Samples;Min_cycle;Max_cycle;Signal;HPM_P1;HPM_P2
2023/09/03 00:01:58;;;;;;;15.40;11.88;;;;;;;;;;5004972;28;20201;-64
2023/09/03 00:04:26;;;;;;;15.13;11.32;;;;;;;;;;5000260;28;20203;-64
2023/09/03 00:06:53;;;;;;;10.90;9.68;;;;;;;;;;5004008;28;20419;-64
2023/09/03 00:09:21;;;;;;;7.70;6.53;;;;;;;;;;5001790;28;20202;-64
2023/09/03 00:11:48;;;;;;;3.75;3.33;;;;;;;;;;5003871;28;20232;-65
2023/09/03 00:14:15;;;;;;;3.38;2.88;;;;;;;;;;5001790;28;20205;-64
2023/09/03 00:16:42;;;;;;;3.60;2.45;;;;;;;;;;5003493;28;20214;-63
2023/09/03 00:19:09;;;;;;;2.22;1.98;;;;;;;;;;5003078;28;20205;-64
2023/09/03 00:21:38;;;;;;;3.38;2.05;;;;;;;;;;5000862;28;20204;-64
2023/09/03 00:24:05;;;;;;;2.88;1.90;;;;;;;;;;5003662;28;20205;-64
2023/09/03 00:26:32;;;;;;;2.10;1.90;;;;;;;;;;5005690;28;20212;-64
2023/09/03 00:28:59;;;;;;;2.10;1.92;;;;;;;;;;4996500;28;20238;-64
2023/09/03 00:31:26;;;;;;;3.03;1.80;;;;;;;;;;5004386;28;20212;-71
2023/09/03 00:33:53;;;;;;;1.60;1.50;;;;;;;;;;4997730;28;20261;-70
2023/09/03 00:36:21;;;;;;;3.38;1.65;;;;;;;;;;5004079;28;20197;-70
2023/09/03 00:38:50;;;;;;;1.58;1.48;;;;;;;;;;4999674;28;20306;-70
2023/09/03 00:41:18;;;;;;;3.50;1.80;;;;;;;;;;5003765;28;20200;-70
2023/09/03 00:43:45;;;;;;;6.00;1.98;;;;;;;;;;5003741;28;20219;-69
2023/09/03 00:46:12;;;;;;;2.28;1.70;;;;;;;;;;4999609;28;20201;-71
2023/09/03 00:48:40;;;;;;;1.98;1.80;;;;;;;;;;5004312;28;20213;-71
2023/09/03 00:51:08;;;;;;;2.08;1.88;;;;;;;;;;4999848;28;20220;-71
2023/09/03 00:53:36;;;;;;;2.55;1.77;;;;;;;;;;5002376;28;20233;-71
2023/09/03 00:56:05;;;;;;;5.03;1.80;;;;;;;;;;5001555;28;20220;-71
2023/09/03 00:58:32;;;;;;;2.75;2.15;;;;;;;;;;5005831;28;20213;-71
2023/09/03 01:00:59;;;;;;;4.53;2.00;;;;;;;;;;5002270;28;20243;-71
2023/09/03 01:03:26;;;;;;;2.53;2.10;;;;;;;;;;5001562;28;20197;-71
2023/09/03 01:05:54;;;;;;;2.13;2.03;;;;;;;;;;5000499;28;20213;-71
2023/09/03 01:08:21;;;;;;;2.60;1.80;;;;;;;;;;4998598;28;20196;-70
2023/09/03 01:10:53;;;;;;;2.40;2.20;;;;;;;;;;4998951;28;20206;-71
2023/09/03 01:13:23;;;;;;;2.10;1.90;;;;;;;;;;4999737;28;20228;-71
2023/09/03 01:15:51;;;;;;;2.03;1.83;;;;;;;;;;4995641;28;20205;-71
2023/09/03 01:18:20;;;;;;;1.80;1.70;;;;;;;;;;5002578;28;20215;-71
2023/09/03 01:20:54;;;;;;;3.78;1.80;;;;;;;;;;4997173;28;20209;-70
2023/09/03 01:23:27;;;;;;;3.55;2.00;;;;;;;;;;5001048;28;20288;-71
2023/09/03 01:26:03;;;;;;;2.63;1.98;;;;;;;;;;4997893;28;20209;-71
2023/09/03 01:28:33;;;;;;;2.03;1.83;;;;;;;;;;5004286;28;20213;-71
2023/09/03 01:31:02;;;;;;;3.65;2.05;;;;;;;;;;4997018;28;20209;-71
2023/09/03 01:33:30;;;;;;;3.15;2.00;;;;;;;;;;5001056;28;20217;-69
2023/09/03 01:35:59;;;;;;;4.32;1.95;;;;;;;;;;4995223;28;20201;-68
2023/09/03 01:38:26;;;;;;;2.38;2.17;;;;;;;;;;4995992;28;20209;-69
2023/09/03 01:40:55;;;;;;;1.90;1.80;;;;;;;;;;5001008;28;20205;-65
2023/09/03 01:43:22;;;;;;;2.00;1.90;;;;;;;;;;5000131;28;20194;-64
2023/09/03 01:45:55;;;;;;;2.58;2.10;;;;;;;;;;4996280;28;20214;-64
2023/09/03 01:48:28;;;;;;;2.78;2.20;;;;;;;;;;4999205;28;20235;-66
2023/09/03 01:51:04;;;;;;;2.28;2.08;;;;;;;;;;4998170;28;20220;-65
2023/09/03 01:53:38;;;;;;;2.95;2.00;;;;;;;;;;5000648;28;20204;-64
2023/09/03 01:56:06;;;;;;;2.30;2.10;;;;;;;;;;4998437;28;20271;-64
2023/09/03 01:58:35;;;;;;;2.80;2.25;;;;;;;;;;4997007;28;20206;-64
2023/09/03 02:01:04;;;;;;;3.67;1.70;;;;;;;;;;4995478;28;20229;-64
2023/09/03 02:03:31;;;;;;;2.03;1.90;;;;;;;;;;5001278;28;20201;-64
2023/09/03 02:05:58;;;;;;;4.28;1.80;;;;;;;;;;4999876;28;20224;-64
2023/09/03 02:08:26;;;;;;;3.22;1.80;;;;;;;;;;4998318;28;20209;-64
2023/09/03 02:10:53;;;;;;;3.60;1.80;;;;;;;;;;4999458;28;20208;-64
2023/09/03 02:13:20;;;;;;;2.33;2.10;;;;;;;;;;5001271;28;20217;-64
2023/09/03 02:15:47;;;;;;;4.60;2.20;;;;;;;;;;4996919;28;20225;-65
2023/09/03 02:18:16;;;;;;;2.85;1.77;;;;;;;;;;4995797;28;20205;-65
2023/09/03 02:20:43;;;;;;;2.92;2.00;;;;;;;;;;4999538;28;20276;-65
2023/09/03 02:23:10;;;;;;;3.45;1.90;;;;;;;;;;5000527;28;22241;-64
2023/09/03 02:25:38;;;;;;;2.65;2.00;;;;;;;;;;5000771;28;20207;-64
2023/09/03 02:28:07;;;;;;;4.18;2.00;;;;;;;;;;4999375;28;20247;-64
2023/09/03 02:30:34;;;;;;;2.55;1.70;;;;;;;;;;4999716;28;20201;-64
2023/09/03 02:33:01;;;;;;;2.05;1.92;;;;;;;;;;4999524;28;20235;-65
2023/09/03 02:35:29;;;;;;;1.98;1.88;;;;;;;;;;5001125;28;20502;-66
2023/09/03 02:37:56;;;;;;;3.08;2.20;;;;;;;;;;4991957;28;20215;-64
2023/09/03 02:40:24;;;;;;;2.10;2.00;;;;;;;;;;5003443;28;20209;-65
2023/09/03 02:42:51;;;;;;;2.80;2.30;;;;;;;;;;4996078;28;20212;-65
2023/09/03 02:45:18;;;;;;;2.38;2.08;;;;;;;;;;4996745;28;20204;-64
2023/09/03 02:47:45;;;;;;;2.88;2.10;;;;;;;;;;4999156;28;20205;-64
2023/09/03 02:50:12;;;;;;;2.92;2.15;;;;;;;;;;5001263;28;20201;-70
2023/09/03 02:52:40;;;;;;;2.75;2.50;;;;;;;;;;4998272;28;20209;-71
2023/09/03 02:55:08;;;;;;;3.03;2.33;;;;;;;;;;4998773;28;20238;-71
2023/09/03 02:57:35;;;;;;;2.95;2.40;;;;;;;;;;5001391;28;20197;-70
2023/09/03 03:00:02;;;;;;;2.60;2.40;;;;;;;;;;4999566;28;20240;-72
2023/09/03 03:02:29;;;;;;;3.22;2.17;;;;;;;;;;5001159;28;20196;-71
2023/09/03 03:04:56;;;;;;;3.10;2.45;;;;;;;;;;4998739;28;20197;-71
2023/09/03 03:07:25;;;;;;;2.50;2.30;;;;;;;;;;5000648;28;20204;-71
2023/09/03 03:09:53;;;;;;;2.78;2.58;;;;;;;;;;5000472;28;20209;-72
2023/09/03 03:12:21;;;;;;;3.30;3.00;;;;;;;;;;4999354;28;20208;-71
2023/09/03 03:14:49;;;;;;;3.25;3.05;;;;;;;;;;5000223;28;20224;-70
2023/09/03 03:17:16;;;;;;;3.95;3.65;;;;;;;;;;5000029;28;20206;-71
2023/09/03 03:19:43;;;;;;;4.00;3.63;;;;;;;;;;5002370;28;20205;-71
2023/09/03 03:22:13;;;;;;;5.03;3.75;;;;;;;;;;4999109;28;20207;-71
2023/09/03 03:24:40;;;;;;;4.50;4.10;;;;;;;;;;4997213;28;20267;-71
2023/09/03 03:27:09;;;;;;;4.45;4.00;;;;;;;;;;5000146;28;20213;-71
2023/09/03 03:29:37;;;;;;;6.55;4.60;;;;;;;;;;5000165;28;20209;-71
2023/09/03 03:32:04;;;;;;;5.68;4.65;;;;;;;;;;4995957;28;20208;-71
2023/09/03 03:34:31;;;;;;;5.70;5.20;;;;;;;;;;4996246;28;20222;-71
2023/09/03 03:36:58;;;;;;;6.25;4.90;;;;;;;;;;4999144;28;20201;-72
2023/09/03 03:39:26;;;;;;;6.10;4.90;;;;;;;;;;4995567;28;20201;-70
2023/09/03 03:41:53;;;;;;;6.50;5.45;;;;;;;;;;5000815;28;20211;-71
2023/09/03 03:44:21;;;;;;;5.82;5.32;;;;;;;;;;4999568;28;20203;-72
2023/09/03 03:46:48;;;;;;;7.43;5.10;;;;;;;;;;5000265;28;20213;-70
2023/09/03 03:49:15;;;;;;;5.97;5.03;;;;;;;;;;5001804;28;20205;-71
2023/09/03 03:51:42;;;;;;;6.03;5.40;;;;;;;;;;4996730;28;20209;-71
2023/09/03 03:54:10;;;;;;;6.88;5.70;;;;;;;;;;5003866;28;20225;-71
2023/09/03 03:56:37;;;;;;;6.03;5.38;;;;;;;;;;4998345;28;20205;-72
2023/09/03 03:59:04;;;;;;;5.90;5.40;;;;;;;;;;4998241;28;20201;-71
2023/09/03 04:01:33;;;;;;;6.68;5.90;;;;;;;;;;4996368;28;20297;-64
2023/09/03 04:04:00;;;;;;;6.13;5.32;;;;;;;;;;4999745;28;20193;-64
2023/09/03 04:06:27;;;;;;;5.72;5.22;;;;;;;;;;4995592;28;20215;-64
2023/09/03 04:08:55;;;;;;;6.18;5.32;;;;;;;;;;4999498;28;20208;-64
2023/09/03 04:11:24;;;;;;;5.93;5.30;;;;;;;;;;4997182;28;20255;-65
2023/09/03 04:13:51;;;;;;;6.30;5.70;;;;;;;;;;4995914;28;20225;-64
2023/09/03 04:16:19;;;;;;;6.80;5.57;;;;;;;;;;4999726;28;20209;-64
2023/09/03 04:18:48;;;;;;;7.00;6.28;;;;;;;;;;4993915;28;20205;-64
2023/09/03 04:21:16;;;;;;;8.35;6.93;;;;;;;;;;4997971;28;20260;-64
2023/09/03 04:23:44;;;;;;;6.70;6.05;;;;;;;;;;4995814;28;20216;-65
2023/09/03 04:26:12;;;;;;;6.93;5.72;;;;;;;;;;5002053;28;20270;-65
2023/09/03 04:28:39;;;;;;;6.70;6.10;;;;;;;;;;4993925;28;20209;-65
2023/09/03 04:31:08;;;;;;;7.45;6.60;;;;;;;;;;4996627;28;20208;-64
2023/09/03 04:33:36;;;;;;;8.18;6.72;;;;;;;;;;4997481;28;20216;-64
2023/09/03 04:36:05;;;;;;;7.82;6.60;;;;;;;;;;5001696;28;20284;-64
2023/09/03 04:38:32;;;;;;;7.05;6.35;;;;;;;;;;5000497;28;20204;-64
2023/09/03 04:41:03;;;;;;;7.53;6.75;;;;;;;;;;4998209;28;20201;-64
2023/09/03 04:43:32;;;;;;;6.60;5.88;;;;;;;;;;4994364;28;20206;-65
2023/09/03 04:45:59;;;;;;;9.50;7.50;;;;;;;;;;5002603;28;20299;-64
2023/09/03 04:48:26;;;;;;;7.25;6.57;;;;;;;;;;5002347;28;20205;-64
2023/09/03 04:50:53;;;;;;;7.50;6.72;;;;;;;;;;4999779;28;20216;-64
2023/09/03 04:53:22;;;;;;;8.00;7.20;;;;;;;;;;4999381;28;20205;-64
2023/09/03 04:55:49;;;;;;;9.35;7.57;;;;;;;;;;4998545;28;20213;-64
2023/09/03 04:58:16;;;;;;;9.00;7.85;;;;;;;;;;5002281;28;20209;-64
2023/09/03 05:00:43;;;;;;;8.15;7.35;;;;;;;;;;5000778;28;20236;-64
2023/09/03 05:03:11;;;;;;;9.02;7.15;;;;;;;;;;4999347;28;20200;-65
2023/09/03 05:05:41;;;;;;;8.13;7.32;;;;;;;;;;5006651;28;20201;-64
2023/09/03 05:08:09;;;;;;;7.68;6.90;;;;;;;;;;5001316;28;20286;-64
2023/09/03 05:10:39;;;;;;;8.13;7.32;;;;;;;;;;5000291;28;20201;-65
2023/09/03 05:13:06;;;;;;;10.43;7.93;;;;;;;;;;5004764;28;20212;-65
2023/09/03 05:15:34;;;;;;;10.07;9.15;;;;;;;;;;5005417;28;20231;-64
2023/09/03 05:18:01;;;;;;;10.23;7.40;;;;;;;;;;5002541;28;20217;-64
2023/09/03 05:20:28;;;;;;;8.93;8.13;;;;;;;;;;5004784;28;20201;-65
2023/09/03 05:22:55;;;;;;;9.07;8.18;;;;;;;;;;5005876;28;20220;-66
2023/09/03 05:25:23;;;;;;;8.93;8.07;;;;;;;;;;5000192;28;20201;-69
2023/09/03 05:27:51;;;;;;;8.50;7.60;;;;;;;;;;5004990;28;20197;-67
2023/09/03 05:30:19;;;;;;;9.02;8.13;;;;;;;;;;4997697;28;20220;-67
2023/09/03 05:32:47;;;;;;;9.38;8.48;;;;;;;;;;4996429;28;20214;-64
2023/09/03 05:35:14;;;;;;;9.55;8.65;;;;;;;;;;5004055;28;20224;-64
2023/09/03 05:37:41;;;;;;;9.90;8.93;;;;;;;;;;4999463;28;20209;-64
2023/09/03 05:40:10;;;;;;;11.57;8.35;;;;;;;;;;5000368;28;20208;-65
2023/09/03 05:42:37;;;;;;;8.98;8.18;;;;;;;;;;4999571;28;20323;-64
2023/09/03 05:45:06;;;;;;;8.10;7.40;;;;;;;;;;4997145;28;20213;-64
2023/09/03 05:47:33;;;;;;;8.68;7.88;;;;;;;;;;5002155;28;20205;-65
2023/09/03 05:50:00;;;;;;;9.30;8.40;;;;;;;;;;5001845;28;20224;-64
2023/09/03 05:52:27;;;;;;;9.88;8.82;;;;;;;;;;5004055;28;20206;-65
2023/09/03 05:54:54;;;;;;;9.05;8.25;;;;;;;;;;5001911;28;20275;-64
2023/09/03 05:57:21;;;;;;;8.15;7.35;;;;;;;;;;5003816;28;20201;-65
2023/09/03 05:59:50;;;;;;;9.18;8.38;;;;;;;;;;5003698;28;20232;-64
2023/09/03 06:02:19;;;;;;;9.68;8.07;;;;;;;;;;4998372;28;20556;-64
2023/09/03 06:04:46;;;;;;;10.43;8.95;;;;;;;;;;5001759;28;20209;-66
2023/09/03 06:07:13;;;;;;;8.38;7.57;;;;;;;;;;5001310;28;20209;-64
2023/09/03 06:09:40;;;;;;;9.27;8.38;;;;;;;;;;4999438;28;20213;-64
2023/09/03 06:12:08;;;;;;;9.55;8.65;;;;;;;;;;5005293;28;20213;-64
2023/09/03 06:14:35;;;;;;;9.32;8.32;;;;;;;;;;5006800;28;20244;-64
2023/09/03 06:17:04;;;;;;;9.82;8.82;;;;;;;;;;5000298;28;20220;-64
2023/09/03 06:19:32;;;;;;;10.43;9.30;;;;;;;;;;5001780;28;20209;-65
2023/09/03 06:21:59;;;;;;;9.00;8.10;;;;;;;;;;5004910;28;20219;-64
2023/09/03 06:24:26;;;;;;;9.05;8.20;;;;;;;;;;4997034;28;20205;-66
2023/09/03 06:26:53;;;;;;;8.48;7.55;;;;;;;;;;4997719;28;20201;-64
2023/09/03 06:29:21;;;;;;;8.43;7.55;;;;;;;;;;4997563;28;20215;-63
2023/09/03 06:31:48;;;;;;;10.32;9.32;;;;;;;;;;4995232;28;20200;-65
2023/09/03 06:34:15;;;;;;;9.27;8.30;;;;;;;;;;4999759;28;20225;-64
2023/09/03 06:36:43;;;;;;;11.27;10.20;;;;;;;;;;5004686;28;20208;-64
2023/09/03 06:39:10;;;;;;;9.50;8.57;;;;;;;;;;4999521;28;20215;-64
2023/09/03 06:41:37;;;;;;;9.65;8.75;;;;;;;;;;5001512;28;20209;-66
2023/09/03 06:44:05;;;;;;;8.27;7.57;;;;;;;;;;4997160;28;20201;-64
2023/09/03 06:46:32;;;;;;;9.20;8.40;;;;;;;;;;4999429;28;20209;-66
2023/09/03 06:48:59;;;;;;;10.15;8.32;;;;;;;;;;5004824;28;20204;-65
2023/09/03 06:51:26;;;;;;;9.00;8.13;;;;;;;;;;5003331;28;20201;-64
2023/09/03 06:53:55;;;;;;;8.77;7.97;;;;;;;;;;5001666;28;20208;-64
2023/09/03 06:56:22;;;;;;;10.15;9.25;;;;;;;;;;5002227;28;20229;-64
2023/09/03 06:58:49;;;;;;;9.70;8.77;;;;;;;;;;5002444;28;20212;-63
2023/09/03 07:01:17;;;;;;;10.40;9.50;;;;;;;;;;4998903;28;20208;-63
2023/09/03 07:03:44;;;;;;;10.50;9.50;;;;;;;;;;4998081;28;20201;-65
2023/09/03 07:06:11;;;;;;;11.38;10.27;;;;;;;;;;5004563;28;20197;-63
2023/09/03 07:08:38;;;;;;;10.45;9.35;;;;;;;;;;4996235;28;20213;-64
2023/09/03 07:11:07;;;;;;;8.93;8.13;;;;;;;;;;5002571;28;20205;-63
2023/09/03 07:13:34;;;;;;;9.88;8.98;;;;;;;;;;5000843;28;20223;-64
2023/09/03 07:16:04;;;;;;;10.60;9.50;;;;;;;;;;4995284;28;20237;-64
2023/09/03 07:18:31;;;;;;;10.88;9.88;;;;;;;;;;4994297;28;20346;-64
2023/09/03 07:21:04;;;;;;;10.85;9.73;;;;;;;;;;4996173;28;20204;-63
2023/09/03 07:23:31;;;;;;;9.95;9.05;;;;;;;;;;4999764;28;20279;-63
2023/09/03 07:26:02;;;;;;;9.63;8.63;;;;;;;;;;4997346;28;20209;-63
2023/09/03 07:28:30;;;;;;;10.00;9.10;;;;;;;;;;5001623;28;20212;-63
2023/09/03 07:30:57;;;;;;;8.35;7.57;;;;;;;;;;4999834;28;20206;-63
2023/09/03 07:33:24;;;;;;;9.88;8.32;;;;;;;;;;4999077;28;20201;-63
2023/09/03 07:35:51;;;;;;;9.30;8.40;;;;;;;;;;5004372;28;20229;-62
2023/09/03 07:38:19;;;;;;;8.70;7.88;;;;;;;;;;5001516;28;20201;-63
2023/09/03 07:40:46;;;;;;;9.40;8.23;;;;;;;;;;4997753;28;20288;-63
2023/09/03 07:43:13;;;;;;;11.30;7.78;;;;;;;;;;4996580;28;20208;-63
2023/09/03 07:45:42;;;;;;;8.73;7.93;;;;;;;;;;4997110;28;20211;-63
2023/09/03 07:48:09;;;;;;;8.88;8.07;;;;;;;;;;4993697;28;20216;-64
2023/09/03 07:50:39;;;;;;;8.60;7.80;;;;;;;;;;5000331;28;20201;-62
2023/09/03 07:53:06;;;;;;;8.07;7.30;;;;;;;;;;4993777;28;20204;-63
2023/09/03 07:55:33;;;;;;;8.38;7.57;;;;;;;;;;4996082;28;20225;-64
2023/09/03 07:58:00;;;;;;;8.18;7.30;;;;;;;;;;4992693;28;20200;-63
2023/09/03 08:00:28;;;;;;;7.63;7.03;;;;;;;;;;4994581;28;20237;-62
2023/09/03 08:02:57;;;;;;;9.10;7.28;;;;;;;;;;4996057;28;20224;-62
2023/09/03 08:05:24;;;;;;;7.10;6.45;;;;;;;;;;4994291;28;20245;-63
2023/09/03 08:07:51;;;;;;;6.97;6.30;;;;;;;;;;4995689;28;20205;-63
2023/09/03 08:10:19;;;;;;;6.20;5.68;;;;;;;;;;4996337;28;20232;-64
2023/09/03 08:12:46;;;;;;;6.70;6.18;;;;;;;;;;4997126;28;20217;-63
2023/09/03 08:15:14;;;;;;;6.35;5.75;;;;;;;;;;4993751;28;20221;-63
2023/09/03 08:17:42;;;;;;;5.65;5.15;;;;;;;;;;4994122;28;20217;-63
2023/09/03 08:20:12;;;;;;;5.95;5.45;;;;;;;;;;5000002;28;20375;-62
2023/09/03 08:22:39;;;;;;;6.97;6.38;;;;;;;;;;4998720;28;20220;-63
2023/09/03 08:25:07;;;;;;;7.03;6.45;;;;;;;;;;4996387;28;20198;-62
2023/09/03 08:27:34;;;;;;;8.15;7.35;;;;;;;;;;5005608;28;20213;-64
2023/09/03 08:30:01;;;;;;;8.20;7.50;;;;;;;;;;5006564;28;20219;-62
2023/09/03 08:32:30;;;;;;;7.70;6.90;;;;;;;;;;5002614;28;20197;-63
2023/09/03 08:34:57;;;;;;;8.13;7.32;;;;;;;;;;5001214;28;20224;-64
2023/09/03 08:37:27;;;;;;;10.68;7.82;;;;;;;;;;4998960;28;20212;-63
2023/09/03 08:39:54;;;;;;;8.35;7.65;;;;;;;;;;5003835;28;20448;-63
2023/09/03 08:42:21;;;;;;;8.85;7.97;;;;;;;;;;4999677;28;20220;-64
2023/09/03 08:44:51;;;;;;;7.93;7.22;;;;;;;;;;4997834;28;20207;-62
2023/09/03 08:47:18;;;;;;;7.85;7.15;;;;;;;;;;4998270;28;20201;-62
2023/09/03 08:49:46;;;;;;;7.90;7.20;;;;;;;;;;5002709;28;20211;-62
2023/09/03 08:52:13;;;;;;;7.30;6.60;;;;;;;;;;5000018;28;20205;-63
2023/09/03 08:54:42;;;;;;;8.50;7.70;;;;;;;;;;4999378;28;20201;-63
2023/09/03 08:57:09;;;;;;;8.40;7.50;;;;;;;;;;4995314;28;20528;-62
2023/09/03 08:59:36;;;;;;;8.20;7.40;;;;;;;;;;4998077;28;20253;-63
2023/09/03 09:02:03;;;;;;;7.85;7.15;;;;;;;;;;4998246;28;20201;-62
2023/09/03 09:04:31;;;;;;;7.85;6.97;;;;;;;;;;5002055;28;20201;-62
2023/09/03 09:06:59;;;;;;;7.72;6.93;;;;;;;;;;5000331;28;20232;-62
2023/09/03 09:09:27;;;;;;;8.10;7.30;;;;;;;;;;5003647;28;20197;-62
2023/09/03 09:11:59;;;;;;;6.95;6.35;;;;;;;;;;5000386;28;20200;-62
2023/09/03 09:14:38;;;;;;;8.27;7.57;;;;;;;;;;4996198;28;20216;-62
2023/09/03 09:17:11;;;;;;;8.32;7.22;;;;;;;;;;5001181;28;20243;-63
2023/09/03 09:19:38;;;;;;;6.53;6.03;;;;;;;;;;4996452;28;20216;-63
2023/09/03 09:22:05;;;;;;;6.43;5.93;;;;;;;;;;5005780;28;20211;-62
2023/09/03 09:24:32;;;;;;;6.00;5.50;;;;;;;;;;4995950;28;20212;-62
2023/09/03 09:27:13;;;;;;;6.53;6.03;;;;;;;;;;4999951;28;20201;-62
2023/09/03 09:29:40;;;;;;;6.85;6.13;;;;;;;;;;5006744;28;20231;-61
2023/09/03 09:32:17;;;;;;;6.85;6.25;;;;;;;;;;5002525;28;20204;-61
2023/09/03 09:34:44;;;;;;;6.82;6.20;;;;;;;;;;5005215;28;20218;-62
2023/09/03 09:37:11;;;;;;;5.82;5.40;;;;;;;;;;5003268;28;20232;-62
2023/09/03 09:39:42;;;;;;;6.30;5.80;;;;;;;;;;5007930;28;20201;-62
2023/09/03 09:42:12;;;;;;;6.30;5.80;;;;;;;;;;5007970;28;20202;-62
2023/09/03 09:44:40;;;;;;;6.25;5.65;;;;;;;;;;5003979;28;20202;-62
2023/09/03 09:47:16;;;;;;;5.57;5.18;;;;;;;;;;5001049;28;20208;-63
2023/09/03 09:49:43;;;;;;;6.38;5.88;;;;;;;;;;5003989;28;20208;-61
2023/09/03 09:52:11;;;;;;;5.75;5.35;;;;;;;;;;5001575;28;20233;-63
2023/09/03 09:54:40;;;;;;;5.43;5.03;;;;;;;;;;5003904;28;20201;-64
2023/09/03 09:57:12;;;;;;;5.07;4.68;;;;;;;;;;5004059;28;20224;-62
2023/09/03 09:59:39;;;;;;;5.10;4.70;;;;;;;;;;4997715;28;20237;-63
2023/09/03 10:02:13;;;;;;;4.90;4.50;;;;;;;;;;4998304;28;20283;-62
2023/09/03 10:04:44;;;;;;;4.82;4.43;;;;;;;;;;5005160;28;20274;-62
2023/09/03 10:07:11;;;;;;;4.60;4.20;;;;;;;;;;4998221;28;20203;-62
2023/09/03 10:09:39;;;;;;;4.32;4.03;;;;;;;;;;5000057;28;20204;-62
2023/09/03 10:12:06;;;;;;;3.97;3.75;;;;;;;;;;4996670;28;20205;-61
2023/09/03 10:14:35;;;;;;;4.35;3.65;;;;;;;;;;4997968;28;20215;-63
2023/09/03 10:17:04;;;;;;;4.20;4.00;;;;;;;;;;4995392;28;20228;-61
2023/09/03 10:19:37;;;;;;;4.00;3.60;;;;;;;;;;4999231;28;20202;-62
2023/09/03 10:22:04;;;;;;;4.05;3.75;;;;;;;;;;4999440;28;20202;-61
2023/09/03 10:24:32;;;;;;;3.92;3.63;;;;;;;;;;5000330;28;20202;-61
2023/09/03 10:27:01;;;;;;;3.97;3.78;;;;;;;;;;4995482;28;20202;-62
2023/09/03 10:29:30;;;;;;;3.78;3.13;;;;;;;;;;4998536;28;20200;-62
2023/09/03 10:31:59;;;;;;;3.67;3.47;;;;;;;;;;5005881;28;20228;-63
2023/09/03 10:34:26;;;;;;;3.80;3.50;;;;;;;;;;4999995;28;20201;-62
2023/09/03 10:37:06;;;;;;;3.60;3.33;;;;;;;;;;4996299;28;20317;-62
2023/09/03 10:39:34;;;;;;;3.65;3.35;;;;;;;;;;4997017;28;20202;-63
2023/09/03 10:42:20;;;;;;;4.00;3.70;;;;;;;;;;4998060;28;20217;-61
2023/09/03 10:44:52;;;;;;;3.60;3.40;;;;;;;;;;4995886;28;20205;-61
2023/09/03 10:47:20;;;;;;;3.60;3.40;;;;;;;;;;4994597;28;20198;-61
2023/09/03 10:49:48;;;;;;;3.70;3.40;;;;;;;;;;5002398;28;20213;-62
2023/09/03 10:52:40;;;;;;;3.72;3.42;;;;;;;;;;4993405;28;20201;-61
2023/09/03 10:55:11;;;;;;;3.72;3.42;;;;;;;;;;4995216;28;20206;-61
2023/09/03 10:57:38;;;;;;;3.45;3.15;;;;;;;;;;4998951;28;20232;-63
2023/09/03 11:00:10;;;;;;;3.40;3.10;;;;;;;;;;4997405;28;20237;-66
2023/09/03 11:02:39;;;;;;;4.18;3.88;;;;;;;;;;4995589;28;20201;-66
2023/09/03 11:05:17;;;;;;;3.80;3.38;;;;;;;;;;4999991;28;20228;-66
2023/09/03 11:07:45;;;;;;;3.47;3.28;;;;;;;;;;4996172;28;20207;-66
2023/09/03 11:10:30;;;;;;;3.80;3.50;;;;;;;;;;5000193;28;20602;-66
2023/09/03 11:12:57;;;;;;;3.97;3.63;;;;;;;;;;4996804;28;20223;-66
2023/09/03 11:15:24;;;;;;;3.67;3.40;;;;;;;;;;4998078;28;20212;-66
2023/09/03 11:17:53;;;;;;;4.45;3.65;;;;;;;;;;4998578;28;20208;-66
2023/09/03 11:20:30;;;;;;;3.65;3.45;;;;;;;;;;4994993;28;20205;-67
2023/09/03 11:22:57;;;;;;;3.55;3.33;;;;;;;;;;4997507;28;20211;-67
2023/09/03 11:25:32;;;;;;;3.70;3.47;;;;;;;;;;4995250;28;20204;-66
2023/09/03 11:27:59;;;;;;;4.00;3.70;;;;;;;;;;4993428;28;20251;-67
2023/09/03 11:30:26;;;;;;;4.15;3.85;;;;;;;;;;4995017;28;20205;-67
2023/09/03 11:32:54;;;;;;;4.20;3.90;;;;;;;;;;4994908;28;20460;-67
2023/09/03 11:35:22;;;;;;;4.20;3.90;;;;;;;;;;4993234;28;20202;-66
2023/09/03 11:37:49;;;;;;;4.40;4.10;;;;;;;;;;4995965;28;20225;-67
2023/09/03 11:40:16;;;;;;;4.45;4.15;;;;;;;;;;4995373;28;20294;-66
2023/09/03 11:42:44;;;;;;;4.30;3.92;;;;;;;;;;5003831;28;20212;-66
2023/09/03 11:45:12;;;;;;;4.28;3.97;;;;;;;;;;4997832;28;20228;-67
2023/09/03 11:47:40;;;;;;;4.32;3.92;;;;;;;;;;4999751;28;20197;-66
2023/09/03 11:50:13;;;;;;;4.18;3.88;;;;;;;;;;4995892;28;20216;-66
2023/09/03 11:52:40;;;;;;;4.78;4.38;;;;;;;;;;4996963;28;20213;-67
2023/09/03 11:55:09;;;;;;;4.28;3.97;;;;;;;;;;4998698;28;20211;-67
2023/09/03 11:57:38;;;;;;;4.60;4.30;;;;;;;;;;5003052;28;20232;-67
2023/09/03 12:00:06;;;;;;;4.63;4.22;;;;;;;;;;4997181;28;20232;-66
2023/09/03 12:02:34;;;;;;;4.47;4.18;;;;;;;;;;4998425;28;20203;-66
2023/09/03 12:05:01;;;;;;;4.47;4.18;;;;;;;;;;5001405;28;20207;-67
2023/09/03 12:07:29;;;;;;;4.70;4.30;;;;;;;;;;5001812;28;20193;-67
2023/09/03 12:09:57;;;;;;;4.60;4.30;;;;;;;;;;5003996;28;20201;-67
2023/09/03 12:12:24;;;;;;;4.15;3.95;;;;;;;;;;5001774;28;20224;-66
2023/09/03 12:14:51;;;;;;;4.70;4.30;;;;;;;;;;5003117;28;20227;-67
2023/09/03 12:17:24;;;;;;;4.00;3.80;;;;;;;;;;5000957;28;20229;-67
2023/09/03 12:19:51;;;;;;;3.60;3.40;;;;;;;;;;4997910;28;20292;-66
2023/09/03 12:22:19;;;;;;;4.22;3.90;;;;;;;;;;4999237;28;20209;-66
2023/09/03 12:24:48;;;;;;;3.58;3.28;;;;;;;;;;5000151;28;20212;-67
2023/09/03 12:27:15;;;;;;;3.53;3.33;;;;;;;;;;4999169;28;20210;-66
2023/09/03 12:29:43;;;;;;;4.13;3.83;;;;;;;;;;4996446;28;20209;-67
2023/09/03 12:32:11;;;;;;;3.45;3.15;;;;;;;;;;5002852;28;20287;-66
2023/09/03 12:34:39;;;;;;;3.72;3.42;;;;;;;;;;5000174;28;20236;-66
2023/09/03 12:37:06;;;;;;;3.90;3.60;;;;;;;;;;4996936;28;20387;-66
2023/09/03 12:39:34;;;;;;;3.40;3.20;;;;;;;;;;4996541;28;20201;-66
2023/09/03 12:42:03;;;;;;;4.03;3.42;;;;;;;;;;5000284;28;20296;-66
2023/09/03 12:44:30;;;;;;;3.80;3.58;;;;;;;;;;4994792;28;20212;-67
2023/09/03 12:46:58;;;;;;;3.47;3.28;;;;;;;;;;5004437;28;20208;-67
2023/09/03 12:49:26;;;;;;;3.40;3.20;;;;;;;;;;4997420;28;20209;-66
2023/09/03 12:51:53;;;;;;;3.47;3.25;;;;;;;;;;5000855;28;20580;-66
2023/09/03 12:54:21;;;;;;;3.60;3.38;;;;;;;;;;5003006;28;20204;-67
2023/09/03 12:56:49;;;;;;;3.78;3.47;;;;;;;;;;5003437;28;20241;-66
2023/09/03 12:59:18;;;;;;;3.47;3.28;;;;;;;;;;4999888;28;20232;-67
2023/09/03 13:01:45;;;;;;;3.60;3.30;;;;;;;;;;4996841;28;20633;-67
2023/09/03 13:04:12;;;;;;;3.88;3.58;;;;;;;;;;4997095;28;20209;-66
2023/09/03 13:06:40;;;;;;;3.80;3.50;;;;;;;;;;4999217;28;20197;-67
2023/09/03 13:09:08;;;;;;;3.92;3.67;;;;;;;;;;4997126;28;20209;-66
2023/09/03 13:11:35;;;;;;;3.97;3.78;;;;;;;;;;5003382;28;20227;-70
2023/09/03 13:14:02;;;;;;;4.05;3.75;;;;;;;;;;5000380;28;20209;-67
2023/09/03 13:16:31;;;;;;;3.40;3.20;;;;;;;;;;5004538;28;20228;-66
2023/09/03 13:18:59;;;;;;;3.85;3.55;;;;;;;;;;5002392;28;20208;-66
2023/09/03 13:21:26;;;;;;;3.50;3.30;;;;;;;;;;5001321;28;20209;-66
2023/09/03 13:23:53;;;;;;;3.85;3.55;;;;;;;;;;4997818;28;20633;-66
2023/09/03 13:26:20;;;;;;;3.80;3.50;;;;;;;;;;5001029;28;20263;-67
2023/09/03 13:28:47;;;;;;;3.83;3.58;;;;;;;;;;4994016;28;20204;-66
2023/09/03 13:31:15;;;;;;;3.67;3.47;;;;;;;;;;4990649;28;20205;-66
2023/09/03 13:33:44;;;;;;;3.50;3.30;;;;;;;;;;4994326;28;20227;-66
2023/09/03 13:36:11;;;;;;;3.80;3.53;;;;;;;;;;4992450;28;20220;-66
2023/09/03 13:38:38;;;;;;;3.78;3.58;;;;;;;;;;4998211;28;20251;-66
2023/09/03 13:41:05;;;;;;;3.63;3.33;;;;;;;;;;5000045;28;20213;-66
2023/09/03 13:43:33;;;;;;;3.55;3.35;;;;;;;;;;4997185;28;20207;-66
2023/09/03 13:46:00;;;;;;;3.80;3.60;;;;;;;;;;5001132;28;20209;-67
2023/09/03 13:48:28;;;;;;;4.13;3.88;;;;;;;;;;4997969;28;20224;-67
2023/09/03 13:50:56;;;;;;;3.92;3.55;;;;;;;;;;4997974;28;20212;-67
2023/09/03 13:53:24;;;;;;;4.10;3.70;;;;;;;;;;4993781;28;20205;-67
2023/09/03 13:55:51;;;;;;;3.63;3.42;;;;;;;;;;4993681;28;20198;-67
2023/09/03 13:58:18;;;;;;;3.42;3.22;;;;;;;;;;4999406;28;20227;-67
2023/09/03 14:00:45;;;;;;;3.33;3.15;;;;;;;;;;4999851;28;20241;-67
2023/09/03 14:03:12;;;;;;;3.83;3.60;;;;;;;;;;5005988;28;20200;-67
2023/09/03 14:05:45;;;;;;;3.65;3.35;;;;;;;;;;4997340;28;20201;-66
2023/09/03 14:08:13;;;;;;;3.75;3.40;;;;;;;;;;4995710;28;20193;-67
2023/09/03 14:10:40;;;;;;;3.60;3.30;;;;;;;;;;4997693;28;20248;-66
2023/09/03 14:13:07;;;;;;;3.60;3.30;;;;;;;;;;5001563;28;20205;-67
2023/09/03 14:15:35;;;;;;;3.60;3.40;;;;;;;;;;5002913;28;20207;-68
2023/09/03 14:18:03;;;;;;;3.47;3.20;;;;;;;;;;4998743;28;20292;-67
2023/09/03 14:20:30;;;;;;;3.30;3.10;;;;;;;;;;4993031;28;20209;-66
2023/09/03 14:22:57;;;;;;;3.40;3.20;;;;;;;;;;4989813;28;20212;-66
2023/09/03 14:25:25;;;;;;;3.63;3.40;;;;;;;;;;4988426;28;20207;-66
2023/09/03 14:27:52;;;;;;;3.65;3.45;;;;;;;;;;4995226;28;20206;-66
2023/09/03 14:30:20;;;;;;;3.22;3.03;;;;;;;;;;5000926;28;20207;-62
2023/09/03 14:32:47;;;;;;;3.88;3.58;;;;;;;;;;4998104;28;20214;-62
2023/09/03 14:35:14;;;;;;;3.45;3.25;;;;;;;;;;5001577;28;20211;-63
2023/09/03 14:37:41;;;;;;;3.22;3.03;;;;;;;;;;5000948;28;20221;-62
2023/09/03 14:40:09;;;;;;;3.63;3.40;;;;;;;;;;4999304;28;20209;-62
2023/09/03 14:42:37;;;;;;;3.60;3.40;;;;;;;;;;5004478;28;20225;-62
2023/09/03 14:45:05;;;;;;;3.70;3.50;;;;;;;;;;4999931;28;20208;-63
2023/09/03 14:47:32;;;;;;;3.80;3.60;;;;;;;;;;5000837;28;20220;-61
2023/09/03 14:49:59;;;;;;;3.78;3.58;;;;;;;;;;4998313;28;20214;-61